Terminal Aerodrome Forecast
Issued by NWS Twin Cities, MN

Home | Current Version | Previous Version | Graphics & Text | Print | Product List | Glossary On
Versions: 1 2 3 4 5 6 7 8 9 10 11 12
000
FTUS43 KMPX 010520
TAFEAU
TAF
KEAU 010520Z 0106/0206 16003KT P6SM FEW100
     FM011100 16006KT P6SM BKN100
     FM011700 17009KT P6SM VCSH SCT050 BKN080
     FM012000 19008KT P6SM BKN080
     FM020000 15005KT P6SM SKC=

USA.gov is the U.S. government's official web portal to all federal, state and local government web resources and services.